AUA75K LATI-LOWW
Flight info
| Callsign | AUA75K |
|---|---|
| Flight time | 1h 28m |
| Altitude | 34000 |
| Route | INLOT DCT RETRA DCT OBUTI OBUTI2W |
| Aircraft | A321/M-SDE3FGHIRWY/LB1 |
Departure
| Time | 2026-05-06 13:07 |
|---|---|
| Airport | Tirana International Airport Mother Teresa (LATI) |
Arrival
| Time | 2026-05-06 14:35 |
|---|---|
| Airport | Vienna International Airport (LOWW) |
| Time | Latitude | Longitude | Altitude | Speed | Heading |
|---|---|---|---|---|---|
| 2026-05-06 12:40 | 41.41912 | 19.71530 | 118 ft | 0 kts | 265° |
| 2026-05-06 12:56 | 41.41912 | 19.71535 | 115 ft | 3 kts | 265° |
| 2026-05-06 12:56 | 41.41914 | 19.71562 | 118 ft | 3 kts | 264° |
| 2026-05-06 12:56 | 41.41917 | 19.71589 | 116 ft | 3 kts | 279° |
| 2026-05-06 12:57 | 41.41910 | 19.71611 | 117 ft | 0 kts | 318° |
| 2026-05-06 12:57 | 41.41923 | 19.71597 | 117 ft | 3 kts | 333° |
| 2026-05-06 12:57 | 41.41925 | 19.71597 | 117 ft | 0 kts | 336° |
| 2026-05-06 13:01 | 41.41932 | 19.71594 | 116 ft | 4 kts | 342° |
| 2026-05-06 13:01 | 41.41983 | 19.71582 | 115 ft | 10 kts | 353° |
| 2026-05-06 13:01 | 41.42051 | 19.71571 | 115 ft | 9 kts | 349° |
| 2026-05-06 13:02 | 41.42101 | 19.71559 | 116 ft | 7 kts | 351° |
| 2026-05-06 13:02 | 41.42152 | 19.71552 | 118 ft | 8 kts | 357° |
| 2026-05-06 13:02 | 41.42219 | 19.71546 | 116 ft | 12 kts | 355° |
| 2026-05-06 13:02 | 41.42306 | 19.71533 | 113 ft | 13 kts | 353° |
| 2026-05-06 13:03 | 41.42394 | 19.71520 | 113 ft | 13 kts | 354° |
| 2026-05-06 13:03 | 41.42482 | 19.71509 | 113 ft | 13 kts | 355° |
| 2026-05-06 13:03 | 41.42566 | 19.71497 | 115 ft | 11 kts | 353° |
| 2026-05-06 13:03 | 41.42633 | 19.71490 | 115 ft | 9 kts | 5° |
| 2026-05-06 13:04 | 41.42674 | 19.71542 | 114 ft | 8 kts | 80° |
| 2026-05-06 13:04 | 41.42678 | 19.71613 | 114 ft | 7 kts | 85° |
| 2026-05-06 13:04 | 41.42682 | 19.71673 | 114 ft | 6 kts | 85° |
| 2026-05-06 13:04 | 41.42685 | 19.71723 | 114 ft | 5 kts | 85° |
| 2026-05-06 13:05 | 41.42687 | 19.71763 | 114 ft | 4 kts | 85° |
| 2026-05-06 13:05 | 41.42689 | 19.71791 | 115 ft | 2 kts | 84° |
| 2026-05-06 13:05 | 41.42691 | 19.71826 | 115 ft | 7 kts | 88° |
| 2026-05-06 13:05 | 41.42658 | 19.71895 | 115 ft | 10 kts | 147° |
| 2026-05-06 13:06 | 41.42587 | 19.71911 | 113 ft | 12 kts | 175° |
| 2026-05-06 13:06 | 41.42345 | 19.71940 | 114 ft | 69 kts | 175° |
| 2026-05-06 13:06 | 41.41652 | 19.72029 | 121 ft | 128 kts | 174° |
| 2026-05-06 13:06 | 41.40621 | 19.72166 | 256 ft | 160 kts | 174° |
| 2026-05-06 13:07 | 41.39522 | 19.72327 | 898 ft | 159 kts | 174° |
| 2026-05-06 13:07 | 41.38428 | 19.72509 | 1546 ft | 158 kts | 173° |
| 2026-05-06 13:07 | 41.37338 | 19.72696 | 2142 ft | 161 kts | 173° |
| 2026-05-06 13:07 | 41.36151 | 19.72848 | 2463 ft | 182 kts | 174° |
| 2026-05-06 13:08 | 41.34817 | 19.73007 | 2711 ft | 203 kts | 174° |
| 2026-05-06 13:08 | 41.33350 | 19.73182 | 2985 ft | 217 kts | 174° |
| 2026-05-06 13:08 | 41.31840 | 19.73363 | 3496 ft | 218 kts | 175° |
| 2026-05-06 13:08 | 41.30331 | 19.73551 | 3998 ft | 218 kts | 175° |
| 2026-05-06 13:09 | 41.28820 | 19.73743 | 4493 ft | 219 kts | 175° |
| 2026-05-06 13:09 | 41.27301 | 19.73939 | 4977 ft | 220 kts | 175° |
| 2026-05-06 13:09 | 41.25780 | 19.73884 | 5476 ft | 221 kts | 197° |
| 2026-05-06 13:09 | 41.24510 | 19.72762 | 5922 ft | 223 kts | 228° |
| 2026-05-06 13:10 | 41.23836 | 19.70907 | 6349 ft | 228 kts | 257° |
| 2026-05-06 13:10 | 41.23950 | 19.68803 | 6794 ft | 234 kts | 286° |
| 2026-05-06 13:10 | 41.24882 | 19.67025 | 7199 ft | 242 kts | 317° |
| 2026-05-06 13:10 | 41.26437 | 19.66123 | 7606 ft | 250 kts | 343° |
| 2026-05-06 13:11 | 41.28208 | 19.65602 | 7729 ft | 273 kts | 345° |
| 2026-05-06 13:11 | 41.30123 | 19.65056 | 8198 ft | 286 kts | 346° |
| 2026-05-06 13:11 | 41.32056 | 19.64509 | 8968 ft | 290 kts | 346° |
| 2026-05-06 13:11 | 41.34036 | 19.63949 | 9745 ft | 292 kts | 346° |
| 2026-05-06 13:12 | 41.36052 | 19.63374 | 10249 ft | 305 kts | 346° |
| 2026-05-06 13:12 | 41.38206 | 19.62751 | 10398 ft | 328 kts | 346° |
| 2026-05-06 13:12 | 41.40490 | 19.62087 | 10751 ft | 341 kts | 346° |
| 2026-05-06 13:12 | 41.42826 | 19.61412 | 11368 ft | 346 kts | 346° |
| 2026-05-06 13:13 | 41.45192 | 19.60731 | 12029 ft | 349 kts | 346° |
| 2026-05-06 13:13 | 41.47580 | 19.60043 | 12690 ft | 353 kts | 346° |
| 2026-05-06 13:13 | 41.49989 | 19.59345 | 13347 ft | 356 kts | 346° |
| 2026-05-06 13:13 | 41.52424 | 19.58638 | 13992 ft | 359 kts | 346° |
| 2026-05-06 13:14 | 41.54877 | 19.57926 | 14593 ft | 363 kts | 346° |
| 2026-05-06 13:14 | 41.57353 | 19.57205 | 15194 ft | 365 kts | 346° |
| 2026-05-06 13:14 | 41.59843 | 19.56483 | 15789 ft | 367 kts | 346° |
| 2026-05-06 13:14 | 41.62348 | 19.55758 | 16373 ft | 370 kts | 345° |
| 2026-05-06 13:15 | 41.64867 | 19.55025 | 16959 ft | 372 kts | 345° |
| 2026-05-06 13:15 | 41.67403 | 19.54282 | 17534 ft | 374 kts | 345° |
| 2026-05-06 13:15 | 41.69951 | 19.53537 | 18094 ft | 376 kts | 345° |
| 2026-05-06 13:15 | 41.72517 | 19.52786 | 18600 ft | 378 kts | 345° |
| 2026-05-06 13:16 | 41.75097 | 19.52032 | 19084 ft | 381 kts | 345° |
| 2026-05-06 13:16 | 41.77690 | 19.51272 | 19543 ft | 383 kts | 344° |
| 2026-05-06 13:16 | 41.80298 | 19.50508 | 19974 ft | 385 kts | 344° |
| 2026-05-06 13:16 | 41.82921 | 19.49738 | 20393 ft | 387 kts | 344° |
| 2026-05-06 13:17 | 41.85556 | 19.48963 | 20818 ft | 389 kts | 344° |
| 2026-05-06 13:17 | 41.88208 | 19.48182 | 21240 ft | 391 kts | 344° |
| 2026-05-06 13:17 | 41.90874 | 19.47397 | 21637 ft | 393 kts | 344° |
| 2026-05-06 13:17 | 41.93556 | 19.46608 | 22027 ft | 396 kts | 343° |
| 2026-05-06 13:18 | 41.96214 | 19.45824 | 22424 ft | 398 kts | 343° |
| 2026-05-06 13:18 | 41.98926 | 19.44862 | 22767 ft | 398 kts | 336° |
| 2026-05-06 13:18 | 42.01507 | 19.43629 | 23130 ft | 400 kts | 336° |
| 2026-05-06 13:18 | 42.04137 | 19.42374 | 23522 ft | 402 kts | 336° |
| 2026-05-06 13:19 | 42.06784 | 19.41113 | 23891 ft | 405 kts | 336° |
| 2026-05-06 13:19 | 42.09448 | 19.39851 | 24225 ft | 407 kts | 336° |
| 2026-05-06 13:19 | 42.12126 | 19.38586 | 24564 ft | 409 kts | 336° |
| 2026-05-06 13:19 | 42.14816 | 19.37316 | 24904 ft | 411 kts | 336° |
| 2026-05-06 13:20 | 42.17518 | 19.36036 | 25250 ft | 413 kts | 336° |
| 2026-05-06 13:20 | 42.20233 | 19.34745 | 25617 ft | 414 kts | 336° |
| 2026-05-06 13:20 | 42.22940 | 19.33395 | 25953 ft | 414 kts | 332° |
| 2026-05-06 13:20 | 42.25518 | 19.31677 | 26274 ft | 414 kts | 329° |
| 2026-05-06 13:21 | 42.28092 | 19.29911 | 26610 ft | 416 kts | 329° |
| 2026-05-06 13:21 | 42.30682 | 19.28142 | 26943 ft | 418 kts | 329° |
| 2026-05-06 13:21 | 42.33286 | 19.26366 | 27280 ft | 420 kts | 329° |
| 2026-05-06 13:21 | 42.35901 | 19.24580 | 27607 ft | 422 kts | 329° |
| 2026-05-06 13:22 | 42.38526 | 19.22785 | 27925 ft | 424 kts | 329° |
| 2026-05-06 13:22 | 42.41165 | 19.20977 | 28241 ft | 426 kts | 329° |
| 2026-05-06 13:22 | 42.43814 | 19.19158 | 28554 ft | 428 kts | 329° |
| 2026-05-06 13:22 | 42.46477 | 19.17324 | 28860 ft | 430 kts | 329° |
| 2026-05-06 13:23 | 42.49150 | 19.15483 | 29151 ft | 432 kts | 329° |
| 2026-05-06 13:23 | 42.51836 | 19.13636 | 29444 ft | 434 kts | 329° |
| 2026-05-06 13:23 | 42.54534 | 19.11781 | 29740 ft | 436 kts | 329° |
| 2026-05-06 13:23 | 42.57243 | 19.09918 | 29976 ft | 438 kts | 329° |
| 2026-05-06 13:24 | 42.59968 | 19.08043 | 30201 ft | 440 kts | 328° |
| 2026-05-06 13:24 | 42.62700 | 19.06156 | 30414 ft | 442 kts | 328° |
| 2026-05-06 13:24 | 42.65441 | 19.04254 | 30627 ft | 443 kts | 328° |
| 2026-05-06 13:24 | 42.68192 | 19.02345 | 30848 ft | 445 kts | 328° |
| 2026-05-06 13:25 | 42.70953 | 19.00433 | 31099 ft | 445 kts | 328° |
| 2026-05-06 13:25 | 42.73710 | 18.98525 | 31401 ft | 445 kts | 328° |
| 2026-05-06 13:25 | 42.76464 | 18.96617 | 31685 ft | 444 kts | 328° |
| 2026-05-06 13:25 | 42.79215 | 18.94710 | 31978 ft | 443 kts | 328° |
| 2026-05-06 13:26 | 42.81961 | 18.92800 | 32263 ft | 443 kts | 328° |
| 2026-05-06 13:26 | 42.84702 | 18.90890 | 32567 ft | 442 kts | 329° |
| 2026-05-06 13:26 | 42.87442 | 18.88977 | 32842 ft | 443 kts | 328° |
| 2026-05-06 13:26 | 42.90179 | 18.87062 | 33126 ft | 442 kts | 329° |
| 2026-05-06 13:27 | 42.92916 | 18.85150 | 33418 ft | 441 kts | 329° |
| 2026-05-06 13:27 | 42.95648 | 18.83242 | 33726 ft | 441 kts | 329° |
| 2026-05-06 13:27 | 42.98375 | 18.81333 | 34017 ft | 440 kts | 329° |
| 2026-05-06 13:27 | 43.01097 | 18.79426 | 34283 ft | 440 kts | 329° |
| 2026-05-06 13:28 | 43.03783 | 18.77544 | 34523 ft | 439 kts | 329° |
| 2026-05-06 13:28 | 43.06537 | 18.75613 | 34744 ft | 440 kts | 329° |
| 2026-05-06 13:28 | 43.09224 | 18.73729 | 34950 ft | 439 kts | 329° |
| 2026-05-06 13:28 | 43.11976 | 18.71795 | 35196 ft | 439 kts | 329° |
| 2026-05-06 13:29 | 43.14652 | 18.69909 | 35436 ft | 438 kts | 329° |
| 2026-05-06 13:29 | 43.17361 | 18.67998 | 35672 ft | 438 kts | 329° |
| 2026-05-06 13:29 | 43.20066 | 18.66089 | 35914 ft | 437 kts | 329° |
| 2026-05-06 13:30 | 43.25457 | 18.62278 | 36041 ft | 433 kts | 329° |
| 2026-05-06 13:30 | 43.30797 | 18.58497 | 36040 ft | 431 kts | 329° |
| 2026-05-06 13:31 | 43.36125 | 18.54710 | 36041 ft | 431 kts | 329° |
| 2026-05-06 13:31 | 43.41447 | 18.50930 | 36041 ft | 431 kts | 329° |
| 2026-05-06 13:32 | 43.46769 | 18.47152 | 36041 ft | 430 kts | 329° |
| 2026-05-06 13:32 | 43.52086 | 18.43356 | 36054 ft | 431 kts | 329° |
| 2026-05-06 13:33 | 43.57404 | 18.39543 | 36042 ft | 431 kts | 329° |
| 2026-05-06 13:33 | 43.62734 | 18.35720 | 35975 ft | 432 kts | 329° |
| 2026-05-06 13:34 | 43.68069 | 18.31892 | 35973 ft | 432 kts | 329° |
| 2026-05-06 13:34 | 43.73410 | 18.28061 | 35984 ft | 433 kts | 329° |
| 2026-05-06 13:35 | 43.78754 | 18.24214 | 35985 ft | 433 kts | 329° |
| 2026-05-06 13:35 | 43.84090 | 18.20356 | 35986 ft | 433 kts | 329° |
| 2026-05-06 13:36 | 43.89421 | 18.16500 | 35989 ft | 432 kts | 328° |
| 2026-05-06 13:36 | 43.94721 | 18.12664 | 36004 ft | 432 kts | 328° |
| 2026-05-06 13:37 | 44.00048 | 18.08798 | 35991 ft | 432 kts | 328° |
| 2026-05-06 13:37 | 44.05365 | 18.04915 | 35989 ft | 432 kts | 328° |
| 2026-05-06 13:38 | 44.10685 | 18.01024 | 35955 ft | 433 kts | 328° |
| 2026-05-06 13:38 | 44.16021 | 17.97123 | 35960 ft | 434 kts | 328° |
| 2026-05-06 13:39 | 44.21363 | 17.93217 | 35955 ft | 434 kts | 328° |
| 2026-05-06 13:39 | 44.26703 | 17.89302 | 35949 ft | 434 kts | 328° |
| 2026-05-06 13:40 | 44.32041 | 17.85375 | 35948 ft | 433 kts | 328° |
| 2026-05-06 13:40 | 44.37371 | 17.81440 | 35950 ft | 434 kts | 328° |
| 2026-05-06 13:41 | 44.42704 | 17.77486 | 35943 ft | 434 kts | 328° |
| 2026-05-06 13:41 | 44.48044 | 17.73538 | 35938 ft | 434 kts | 328° |
| 2026-05-06 13:42 | 44.53387 | 17.69580 | 35935 ft | 435 kts | 328° |
| 2026-05-06 13:42 | 44.57830 | 17.66279 | 35931 ft | 435 kts | 328° |
| 2026-05-06 13:43 | 44.63171 | 17.62301 | 35940 ft | 435 kts | 327° |
| 2026-05-06 13:43 | 44.69381 | 17.57664 | 35932 ft | 435 kts | 327° |
| 2026-05-06 13:44 | 44.73862 | 17.54309 | 35924 ft | 436 kts | 327° |
| 2026-05-06 13:44 | 44.79213 | 17.50304 | 35923 ft | 436 kts | 327° |
| 2026-05-06 13:45 | 44.84568 | 17.46286 | 35937 ft | 436 kts | 327° |
| 2026-05-06 13:45 | 44.92584 | 17.40252 | 35941 ft | 435 kts | 327° |
| 2026-05-06 13:46 | 44.97890 | 17.36240 | 35926 ft | 436 kts | 327° |
| 2026-05-06 13:46 | 45.03238 | 17.32193 | 35912 ft | 437 kts | 327° |
| 2026-05-06 13:47 | 45.08594 | 17.28138 | 35928 ft | 436 kts | 326° |
| 2026-05-06 13:47 | 45.13945 | 17.24078 | 35930 ft | 436 kts | 326° |
| 2026-05-06 13:48 | 45.19289 | 17.20007 | 35927 ft | 436 kts | 326° |
| 2026-05-06 13:48 | 45.24627 | 17.15922 | 35934 ft | 436 kts | 326° |
| 2026-05-06 13:49 | 45.29973 | 17.11832 | 35937 ft | 436 kts | 326° |
| 2026-05-06 13:49 | 45.35320 | 17.07743 | 35943 ft | 436 kts | 326° |
| 2026-05-06 13:50 | 45.40661 | 17.03641 | 35938 ft | 436 kts | 326° |
| 2026-05-06 13:50 | 45.45998 | 16.99527 | 35929 ft | 436 kts | 326° |
| 2026-05-06 13:51 | 45.51332 | 16.95413 | 35949 ft | 436 kts | 326° |
| 2026-05-06 13:51 | 45.56669 | 16.91277 | 35941 ft | 437 kts | 326° |
| 2026-05-06 13:52 | 45.62013 | 16.87145 | 35934 ft | 437 kts | 326° |
| 2026-05-06 13:52 | 45.67363 | 16.83001 | 35931 ft | 437 kts | 326° |
| 2026-05-06 13:53 | 45.72713 | 16.78841 | 35942 ft | 438 kts | 326° |
| 2026-05-06 13:53 | 45.78061 | 16.74674 | 35947 ft | 437 kts | 326° |
| 2026-05-06 13:54 | 45.83400 | 16.70499 | 35957 ft | 437 kts | 326° |
| 2026-05-06 13:54 | 45.88737 | 16.66307 | 35948 ft | 438 kts | 326° |
| 2026-05-06 13:55 | 45.94080 | 16.62105 | 35946 ft | 438 kts | 325° |
| 2026-05-06 13:55 | 45.99421 | 16.57893 | 35953 ft | 438 kts | 325° |
| 2026-05-06 13:56 | 46.04767 | 16.53690 | 35955 ft | 438 kts | 325° |
| 2026-05-06 13:56 | 46.10107 | 16.49481 | 35967 ft | 437 kts | 325° |
| 2026-05-06 13:57 | 46.15443 | 16.45256 | 35957 ft | 438 kts | 325° |
| 2026-05-06 13:57 | 46.20740 | 16.41045 | 35964 ft | 438 kts | 325° |
| 2026-05-06 13:58 | 46.26077 | 16.36799 | 35958 ft | 438 kts | 325° |
| 2026-05-06 13:58 | 46.31412 | 16.32548 | 35948 ft | 438 kts | 325° |
| 2026-05-06 13:59 | 46.36804 | 16.28431 | 35944 ft | 442 kts | 332° |
| 2026-05-06 13:59 | 46.42837 | 16.26212 | 35950 ft | 453 kts | 345° |
| 2026-05-06 14:00 | 46.49083 | 16.24750 | 35909 ft | 456 kts | 345° |
| 2026-05-06 14:00 | 46.55356 | 16.23274 | 35905 ft | 457 kts | 345° |
| 2026-05-06 14:01 | 46.61644 | 16.21773 | 35901 ft | 458 kts | 345° |
| 2026-05-06 14:01 | 46.67942 | 16.20266 | 35918 ft | 459 kts | 345° |
| 2026-05-06 14:02 | 46.74241 | 16.18769 | 35922 ft | 459 kts | 345° |
| 2026-05-06 14:02 | 46.80494 | 16.17278 | 35790 ft | 457 kts | 345° |
| 2026-05-06 14:03 | 46.83637 | 16.16522 | 35518 ft | 446 kts | 345° |
| 2026-05-06 14:03 | 46.86619 | 16.15811 | 35373 ft | 434 kts | 345° |
| 2026-05-06 14:03 | 46.89569 | 16.15111 | 35028 ft | 426 kts | 344° |
| 2026-05-06 14:03 | 46.92484 | 16.14416 | 34516 ft | 424 kts | 344° |
| 2026-05-06 14:04 | 46.95392 | 16.13716 | 33939 ft | 423 kts | 343° |
| 2026-05-06 14:04 | 46.98297 | 16.13010 | 33247 ft | 424 kts | 343° |
| 2026-05-06 14:04 | 47.01206 | 16.12298 | 32550 ft | 424 kts | 344° |
| 2026-05-06 14:04 | 47.04109 | 16.11590 | 32017 ft | 421 kts | 344° |
| 2026-05-06 14:05 | 47.06988 | 16.10896 | 31497 ft | 418 kts | 344° |
| 2026-05-06 14:05 | 47.09847 | 16.10210 | 30983 ft | 415 kts | 345° |
| 2026-05-06 14:05 | 47.12682 | 16.09528 | 30467 ft | 412 kts | 345° |
| 2026-05-06 14:05 | 47.15498 | 16.08850 | 29936 ft | 409 kts | 345° |
| 2026-05-06 14:06 | 47.18297 | 16.08174 | 29317 ft | 406 kts | 345° |
| 2026-05-06 14:06 | 47.21071 | 16.07501 | 28728 ft | 403 kts | 345° |
| 2026-05-06 14:06 | 47.23824 | 16.06831 | 28112 ft | 399 kts | 345° |
| 2026-05-06 14:06 | 47.26556 | 16.06163 | 27533 ft | 396 kts | 345° |
| 2026-05-06 14:07 | 47.29264 | 16.05497 | 26956 ft | 393 kts | 345° |
| 2026-05-06 14:07 | 47.31957 | 16.04836 | 26401 ft | 391 kts | 346° |
| 2026-05-06 14:07 | 47.34642 | 16.04221 | 25848 ft | 391 kts | 351° |
| 2026-05-06 14:07 | 47.37367 | 16.04253 | 25344 ft | 394 kts | 4° |
| 2026-05-06 14:08 | 47.40043 | 16.05138 | 24839 ft | 395 kts | 15° |
| 2026-05-06 14:08 | 47.42640 | 16.06433 | 24349 ft | 393 kts | 16° |
| 2026-05-06 14:08 | 47.45226 | 16.07720 | 23864 ft | 391 kts | 15° |
| 2026-05-06 14:08 | 47.47792 | 16.08996 | 23401 ft | 388 kts | 15° |
| 2026-05-06 14:09 | 47.50345 | 16.10265 | 22872 ft | 385 kts | 15° |
| 2026-05-06 14:09 | 47.52878 | 16.11522 | 22378 ft | 383 kts | 15° |
| 2026-05-06 14:09 | 47.55390 | 16.12770 | 21877 ft | 380 kts | 15° |
| 2026-05-06 14:09 | 47.57884 | 16.14011 | 21392 ft | 377 kts | 15° |
| 2026-05-06 14:10 | 47.60361 | 16.15243 | 20911 ft | 374 kts | 15° |
| 2026-05-06 14:10 | 47.62814 | 16.16466 | 20461 ft | 371 kts | 15° |
| 2026-05-06 14:10 | 47.65258 | 16.17687 | 19992 ft | 369 kts | 15° |
| 2026-05-06 14:10 | 47.67680 | 16.18897 | 19552 ft | 366 kts | 15° |
| 2026-05-06 14:11 | 47.70086 | 16.20102 | 19090 ft | 364 kts | 15° |
| 2026-05-06 14:11 | 47.72447 | 16.21287 | 18628 ft | 362 kts | 16° |
| 2026-05-06 14:11 | 47.74737 | 16.22806 | 18212 ft | 361 kts | 29° |
| 2026-05-06 14:11 | 47.76727 | 16.25029 | 17962 ft | 353 kts | 43° |
| 2026-05-06 14:12 | 47.78334 | 16.27760 | 17515 ft | 351 kts | 56° |
| 2026-05-06 14:12 | 47.79596 | 16.30857 | 16992 ft | 350 kts | 61° |
| 2026-05-06 14:12 | 47.80822 | 16.33988 | 16473 ft | 350 kts | 60° |
| 2026-05-06 14:12 | 47.82047 | 16.37121 | 15964 ft | 350 kts | 61° |
| 2026-05-06 14:13 | 47.83272 | 16.40254 | 15463 ft | 350 kts | 61° |
| 2026-05-06 14:13 | 47.84495 | 16.43387 | 14984 ft | 350 kts | 61° |
| 2026-05-06 14:13 | 47.85715 | 16.46517 | 14499 ft | 350 kts | 61° |
| 2026-05-06 14:13 | 47.86937 | 16.49655 | 14015 ft | 350 kts | 61° |
| 2026-05-06 14:14 | 47.88156 | 16.52790 | 13554 ft | 349 kts | 61° |
| 2026-05-06 14:14 | 47.89373 | 16.55921 | 13008 ft | 349 kts | 62° |
| 2026-05-06 14:14 | 47.90586 | 16.59045 | 12478 ft | 348 kts | 62° |
| 2026-05-06 14:14 | 47.91796 | 16.62159 | 11964 ft | 346 kts | 62° |
| 2026-05-06 14:15 | 47.92998 | 16.65262 | 11459 ft | 345 kts | 62° |
| 2026-05-06 14:15 | 47.94193 | 16.68357 | 10972 ft | 344 kts | 62° |
| 2026-05-06 14:15 | 47.95384 | 16.71441 | 10468 ft | 342 kts | 61° |
| 2026-05-06 14:15 | 47.96573 | 16.74513 | 10004 ft | 341 kts | 61° |
| 2026-05-06 14:16 | 47.97899 | 16.77426 | 9509 ft | 340 kts | 47° |
| 2026-05-06 14:16 | 47.99785 | 16.79510 | 8987 ft | 337 kts | 23° |
| 2026-05-06 14:16 | 48.02008 | 16.80413 | 8570 ft | 327 kts | 1° |
| 2026-05-06 14:16 | 48.04207 | 16.80111 | 8262 ft | 311 kts | 340° |
| 2026-05-06 14:17 | 48.06143 | 16.78871 | 7946 ft | 298 kts | 327° |
| 2026-05-06 14:17 | 48.07963 | 16.77473 | 7660 ft | 291 kts | 328° |
| 2026-05-06 14:17 | 48.09744 | 16.76103 | 7362 ft | 285 kts | 328° |
| 2026-05-06 14:17 | 48.11505 | 16.74749 | 7058 ft | 284 kts | 328° |
| 2026-05-06 14:18 | 48.13253 | 16.73402 | 6776 ft | 282 kts | 328° |
| 2026-05-06 14:18 | 48.14409 | 16.72510 | 6582 ft | 282 kts | 328° |
| 2026-05-06 14:20 | 48.15111 | 16.71946 | 6465 ft | 280 kts | 326° |
| 2026-05-06 14:20 | 48.16822 | 16.70540 | 6177 ft | 282 kts | 328° |
| 2026-05-06 14:20 | 48.18565 | 16.69191 | 5871 ft | 282 kts | 329° |
| 2026-05-06 14:21 | 48.20322 | 16.67860 | 5569 ft | 282 kts | 329° |
| 2026-05-06 14:21 | 48.22088 | 16.66577 | 5262 ft | 283 kts | 334° |
| 2026-05-06 14:21 | 48.23971 | 16.65707 | 4970 ft | 284 kts | 342° |
| 2026-05-06 14:21 | 48.25847 | 16.64942 | 4677 ft | 283 kts | 341° |
| 2026-05-06 14:22 | 48.27744 | 16.64149 | 4381 ft | 282 kts | 341° |
| 2026-05-06 14:22 | 48.29632 | 16.63352 | 4095 ft | 281 kts | 341° |
| 2026-05-06 14:22 | 48.31512 | 16.62554 | 3993 ft | 281 kts | 341° |
| 2026-05-06 14:22 | 48.33397 | 16.61753 | 4005 ft | 282 kts | 342° |
| 2026-05-06 14:23 | 48.35289 | 16.60951 | 4006 ft | 283 kts | 342° |
| 2026-05-06 14:23 | 48.37181 | 16.60150 | 4005 ft | 283 kts | 342° |
| 2026-05-06 14:23 | 48.39073 | 16.59353 | 4005 ft | 282 kts | 342° |
| 2026-05-06 14:23 | 48.40965 | 16.58559 | 4005 ft | 282 kts | 342° |
| 2026-05-06 14:24 | 48.42854 | 16.57763 | 4006 ft | 281 kts | 343° |
| 2026-05-06 14:24 | 48.44678 | 16.56988 | 3998 ft | 281 kts | 342° |
| 2026-05-06 14:24 | 48.46561 | 16.56188 | 3998 ft | 281 kts | 342° |
| 2026-05-06 14:24 | 48.48438 | 16.55392 | 3996 ft | 280 kts | 342° |
| 2026-05-06 14:25 | 48.50320 | 16.54594 | 4000 ft | 281 kts | 341° |
| 2026-05-06 14:25 | 48.52025 | 16.53269 | 4000 ft | 274 kts | 314° |
| 2026-05-06 14:25 | 48.53104 | 16.50998 | 4000 ft | 263 kts | 285° |
| 2026-05-06 14:25 | 48.53388 | 16.48350 | 4001 ft | 253 kts | 259° |
| 2026-05-06 14:26 | 48.53004 | 16.45812 | 3989 ft | 248 kts | 248° |
| 2026-05-06 14:26 | 48.52254 | 16.43522 | 3989 ft | 241 kts | 223° |
| 2026-05-06 14:26 | 48.50896 | 16.42158 | 3982 ft | 235 kts | 195° |
| 2026-05-06 14:26 | 48.49285 | 16.42021 | 3983 ft | 234 kts | 169° |
| 2026-05-06 14:27 | 48.47698 | 16.42646 | 3988 ft | 237 kts | 167° |
| 2026-05-06 14:27 | 48.46120 | 16.43272 | 3987 ft | 239 kts | 166° |
| 2026-05-06 14:27 | 48.44501 | 16.43954 | 3996 ft | 238 kts | 166° |
| 2026-05-06 14:27 | 48.42933 | 16.44627 | 3992 ft | 228 kts | 165° |
| 2026-05-06 14:28 | 48.41479 | 16.45252 | 3990 ft | 213 kts | 166° |
| 2026-05-06 14:28 | 48.40106 | 16.45841 | 3992 ft | 198 kts | 166° |
| 2026-05-06 14:28 | 48.38799 | 16.46400 | 4003 ft | 194 kts | 166° |
| 2026-05-06 14:28 | 48.37507 | 16.46952 | 4000 ft | 193 kts | 166° |
| 2026-05-06 14:29 | 48.36216 | 16.47503 | 4000 ft | 193 kts | 166° |
| 2026-05-06 14:29 | 48.34931 | 16.48053 | 3998 ft | 192 kts | 166° |
| 2026-05-06 14:29 | 48.33644 | 16.48602 | 3999 ft | 193 kts | 166° |
| 2026-05-06 14:29 | 48.32379 | 16.49144 | 3998 ft | 180 kts | 167° |
| 2026-05-06 14:30 | 48.31206 | 16.49645 | 4005 ft | 172 kts | 167° |
| 2026-05-06 14:30 | 48.30063 | 16.50132 | 4001 ft | 170 kts | 168° |
| 2026-05-06 14:30 | 48.28921 | 16.50618 | 3919 ft | 171 kts | 168° |
| 2026-05-06 14:30 | 48.27783 | 16.51103 | 3730 ft | 169 kts | 168° |
| 2026-05-06 14:31 | 48.26658 | 16.51582 | 3520 ft | 167 kts | 168° |
| 2026-05-06 14:31 | 48.25543 | 16.52057 | 3315 ft | 166 kts | 167° |
| 2026-05-06 14:31 | 48.24431 | 16.52530 | 3096 ft | 166 kts | 167° |
| 2026-05-06 14:31 | 48.23319 | 16.53003 | 2877 ft | 166 kts | 167° |
| 2026-05-06 14:32 | 48.22249 | 16.53459 | 2688 ft | 154 kts | 167° |
| 2026-05-06 14:32 | 48.21579 | 16.53744 | 2537 ft | 150 kts | 167° |
| 2026-05-06 14:32 | 48.20585 | 16.54166 | 2338 ft | 148 kts | 167° |
| 2026-05-06 14:32 | 48.19598 | 16.54585 | 2142 ft | 147 kts | 167° |
| 2026-05-06 14:33 | 48.18612 | 16.55003 | 1955 ft | 146 kts | 167° |
| 2026-05-06 14:33 | 48.17672 | 16.55403 | 1761 ft | 132 kts | 167° |
| 2026-05-06 14:33 | 48.16546 | 16.55881 | 1544 ft | 122 kts | 167° |
| 2026-05-06 14:33 | 48.16011 | 16.56108 | 1442 ft | 120 kts | 167° |
| 2026-05-06 14:34 | 48.15199 | 16.56451 | 1287 ft | 123 kts | 167° |
| 2026-05-06 14:34 | 48.14373 | 16.56801 | 1118 ft | 125 kts | 166° |
| 2026-05-06 14:34 | 48.13532 | 16.57148 | 996 ft | 124 kts | 165° |
| 2026-05-06 14:34 | 48.12714 | 16.57531 | 846 ft | 123 kts | 164° |
| 2026-05-06 14:35 | 48.11907 | 16.57870 | 721 ft | 120 kts | 166° |
| 2026-05-06 14:35 | 48.11102 | 16.58182 | 625 ft | 115 kts | 163° |
| 2026-05-06 14:35 | 48.10455 | 16.58462 | 615 ft | 64 kts | 162° |
| 2026-05-06 14:35 | 48.10265 | 16.58545 | 619 ft | 14 kts | 164° |
| 2026-05-06 14:36 | 48.10177 | 16.58582 | 615 ft | 13 kts | 164° |
| 2026-05-06 14:36 | 48.10080 | 16.58619 | 611 ft | 18 kts | 170° |
| 2026-05-06 14:36 | 48.09929 | 16.58616 | 609 ft | 25 kts | 187° |
| 2026-05-06 14:36 | 48.09777 | 16.58579 | 609 ft | 16 kts | 189° |
| 2026-05-06 14:37 | 48.09666 | 16.58538 | 609 ft | 17 kts | 213° |
| 2026-05-06 14:37 | 48.09663 | 16.58393 | 622 ft | 15 kts | 316° |
| 2026-05-06 14:37 | 48.09761 | 16.58335 | 620 ft | 15 kts | 344° |
| 2026-05-06 14:37 | 48.09863 | 16.58293 | 619 ft | 15 kts | 344° |
| 2026-05-06 14:38 | 48.09962 | 16.58251 | 614 ft | 15 kts | 344° |
| 2026-05-06 14:38 | 48.10060 | 16.58210 | 614 ft | 15 kts | 344° |
| 2026-05-06 14:38 | 48.10158 | 16.58168 | 615 ft | 15 kts | 344° |
| 2026-05-06 14:38 | 48.10256 | 16.58127 | 612 ft | 15 kts | 344° |
| 2026-05-06 14:39 | 48.10353 | 16.58086 | 619 ft | 14 kts | 344° |
| 2026-05-06 14:39 | 48.10448 | 16.58046 | 614 ft | 14 kts | 344° |
| 2026-05-06 14:39 | 48.10544 | 16.58005 | 617 ft | 14 kts | 344° |
| 2026-05-06 14:39 | 48.10640 | 16.57965 | 624 ft | 14 kts | 344° |
| 2026-05-06 14:40 | 48.10735 | 16.57926 | 610 ft | 14 kts | 345° |
| 2026-05-06 14:40 | 48.10830 | 16.57886 | 619 ft | 15 kts | 345° |
| 2026-05-06 14:40 | 48.10936 | 16.57843 | 617 ft | 16 kts | 345° |
| 2026-05-06 14:40 | 48.11041 | 16.57773 | 622 ft | 17 kts | 316° |
| 2026-05-06 14:41 | 48.11097 | 16.57621 | 611 ft | 17 kts | 295° |
| 2026-05-06 14:41 | 48.11147 | 16.57464 | 614 ft | 17 kts | 295° |
| 2026-05-06 14:41 | 48.11198 | 16.57306 | 616 ft | 17 kts | 297° |
| 2026-05-06 14:41 | 48.11252 | 16.57148 | 617 ft | 17 kts | 296° |
| 2026-05-06 14:42 | 48.11304 | 16.56985 | 615 ft | 17 kts | 295° |
| 2026-05-06 14:42 | 48.11368 | 16.56846 | 617 ft | 15 kts | 334° |
| 2026-05-06 14:42 | 48.11457 | 16.56865 | 610 ft | 12 kts | 22° |
| 2026-05-06 14:42 | 48.11524 | 16.56897 | 610 ft | 9 kts | 8° |
| 2026-05-06 14:43 | 48.11573 | 16.56902 | 619 ft | 6 kts | 6° |
| 2026-05-06 14:43 | 48.11604 | 16.56917 | 620 ft | 3 kts | 24° |
| 2026-05-06 14:43 | 48.11618 | 16.56927 | 621 ft | 1 kts | 27° |
| 2026-05-06 14:43 | 48.11623 | 16.56931 | 618 ft | 0 kts | 27° |
| 2026-05-06 14:44 | 48.11640 | 16.56943 | 613 ft | 6 kts | 26° |
| 2026-05-06 14:44 | 48.11652 | 16.56953 | 615 ft | 0 kts | 26° |